sensor_id;sensor_type;location;lat;lon;timestamp;pressure;altitude;pressure_sealevel;temperature;humidity
7178;BME280;3630;42.146;24.756;2023-01-30T00:01:41;99861.34;;;5.18;66.12
7178;BME280;3630;42.146;24.756;2023-01-30T00:04:08;99868.16;;;5.19;65.21
7178;BME280;3630;42.146;24.756;2023-01-30T00:06:38;99867.78;;;5.29;65.58
7178;BME280;3630;42.146;24.756;2023-01-30T00:09:04;99869.91;;;5.40;64.58
7178;BME280;3630;42.146;24.756;2023-01-30T00:11:31;99859.66;;;5.38;64.58
7178;BME280;3630;42.146;24.756;2023-01-30T00:13:59;99868.13;;;5.38;63.82
7178;BME280;3630;42.146;24.756;2023-01-30T00:16:27;99858.78;;;5.38;64.73
7178;BME280;3630;42.146;24.756;2023-01-30T00:18:54;99862.72;;;5.31;64.53
7178;BME280;3630;42.146;24.756;2023-01-30T00:21:20;99859.13;;;5.26;64.88
7178;BME280;3630;42.146;24.756;2023-01-30T00:23:47;99857.44;;;5.26;64.33
7178;BME280;3630;42.146;24.756;2023-01-30T00:26:14;99863.59;;;5.31;64.58
7178;BME280;3630;42.146;24.756;2023-01-30T00:28:41;99863.59;;;5.31;64.62
7178;BME280;3630;42.146;24.756;2023-01-30T00:31:08;99861.97;;;5.33;65.14
7178;BME280;3630;42.146;24.756;2023-01-30T00:33:36;99867.22;;;5.36;63.96
7178;BME280;3630;42.146;24.756;2023-01-30T00:36:04;99843.09;;;5.28;64.51
7178;BME280;3630;42.146;24.756;2023-01-30T00:38:32;99862.13;;;5.36;64.56
7178;BME280;3630;42.146;24.756;2023-01-30T00:40:58;99855.41;;;5.38;65.58
7178;BME280;3630;42.146;24.756;2023-01-30T00:43:25;99857.84;;;5.35;65.47
7178;BME280;3630;42.146;24.756;2023-01-30T00:46:24;99860.72;;;5.43;65.07
7178;BME280;3630;42.146;24.756;2023-01-30T00:49:26;99856.50;;;5.44;64.71
7178;BME280;3630;42.146;24.756;2023-01-30T00:51:52;99854.03;;;5.47;65.08
7178;BME280;3630;42.146;24.756;2023-01-30T00:54:19;99858.44;;;5.49;64.62
7178;BME280;3630;42.146;24.756;2023-01-30T00:56:46;99854.13;;;5.48;63.91
7178;BME280;3630;42.146;24.756;2023-01-30T00:59:13;99852.31;;;5.46;64.13
7178;BME280;3630;42.146;24.756;2023-01-30T01:01:39;99860.59;;;5.40;64.75
7178;BME280;3630;42.146;24.756;2023-01-30T01:04:07;99829.13;;;5.19;65.07
7178;BME280;3630;42.146;24.756;2023-01-30T01:06:36;99854.94;;;5.28;65.27
7178;BME280;3630;42.146;24.756;2023-01-30T01:09:04;99845.47;;;5.24;65.01
7178;BME280;3630;42.146;24.756;2023-01-30T01:11:32;99845.78;;;5.31;66.08
7178;BME280;3630;42.146;24.756;2023-01-30T01:14:00;99837.25;;;5.31;65.65
7178;BME280;3630;42.146;24.756;2023-01-30T01:16:29;99841.34;;;5.27;66.31
7178;BME280;3630;42.146;24.756;2023-01-30T01:18:56;99852.28;;;5.25;66.05
7178;BME280;3630;42.146;24.756;2023-01-30T01:21:23;99836.81;;;5.20;65.29
7178;BME280;3630;42.146;24.756;2023-01-30T01:23:52;99833.31;;;5.18;65.91
7178;BME280;3630;42.146;24.756;2023-01-30T01:26:19;99835.19;;;5.22;65.74
7178;BME280;3630;42.146;24.756;2023-01-30T01:28:46;99829.13;;;5.19;65.92
7178;BME280;3630;42.146;24.756;2023-01-30T01:31:15;99829.28;;;5.23;65.65
7178;BME280;3630;42.146;24.756;2023-01-30T01:33:42;99822.31;;;5.19;65.45
7178;BME280;3630;42.146;24.756;2023-01-30T01:36:09;99825.69;;;5.18;65.44
7178;BME280;3630;42.146;24.756;2023-01-30T01:38:35;99829.22;;;5.22;65.29
7178;BME280;3630;42.146;24.756;2023-01-30T01:41:04;99829.94;;;5.19;65.61
7178;BME280;3630;42.146;24.756;2023-01-30T01:43:33;99827.69;;;5.25;65.04
7178;BME280;3630;42.146;24.756;2023-01-30T01:46:05;99566.44;;;3.87;64.54
7178;BME280;3630;42.146;24.756;2023-01-30T01:48:35;99825.41;;;5.31;64.71
7178;BME280;3630;42.146;24.756;2023-01-30T01:51:08;99816.69;;;5.26;64.68
7178;BME280;3630;42.146;24.756;2023-01-30T01:53:40;99829.56;;;5.29;64.64
7178;BME280;3630;42.146;24.756;2023-01-30T01:56:11;99823.78;;;5.33;64.12
7178;BME280;3630;42.146;24.756;2023-01-30T01:58:42;99828.25;;;5.39;63.94
7178;BME280;3630;42.146;24.756;2023-01-30T02:01:11;99813.84;;;5.40;62.54
7178;BME280;3630;42.146;24.756;2023-01-30T02:03:41;99824.72;;;5.35;63.49
7178;BME280;3630;42.146;24.756;2023-01-30T02:06:13;99821.50;;;5.40;63.06
7178;BME280;3630;42.146;24.756;2023-01-30T02:08:44;99819.56;;;5.34;62.79
7178;BME280;3630;42.146;24.756;2023-01-30T02:11:21;99819.50;;;5.32;63.40
7178;BME280;3630;42.146;24.756;2023-01-30T02:13:51;99822.19;;;5.35;63.81
7178;BME280;3630;42.146;24.756;2023-01-30T02:16:19;99812.03;;;5.37;63.49
7178;BME280;3630;42.146;24.756;2023-01-30T02:18:46;99811.28;;;5.40;62.71
7178;BME280;3630;42.146;24.756;2023-01-30T02:24:33;99816.00;;;5.30;62.68
7178;BME280;3630;42.146;24.756;2023-01-30T02:33:26;99810.81;;;5.08;62.60
7178;BME280;3630;42.146;24.756;2023-01-30T02:36:03;99813.13;;;5.02;62.15
7178;BME280;3630;42.146;24.756;2023-01-30T02:38:40;99807.75;;;4.96;62.61
7178;BME280;3630;42.146;24.756;2023-01-30T02:41:18;99795.19;;;5.01;63.68
7178;BME280;3630;42.146;24.756;2023-01-30T02:43:57;99797.88;;;5.04;62.82
7178;BME280;3630;42.146;24.756;2023-01-30T02:46:31;99805.34;;;4.99;62.85
7178;BME280;3630;42.146;24.756;2023-01-30T02:49:06;99811.53;;;5.06;63.32
7178;BME280;3630;42.146;24.756;2023-01-30T02:51:36;99803.25;;;5.10;63.19
7178;BME280;3630;42.146;24.756;2023-01-30T02:54:04;99802.50;;;5.12;62.58
7178;BME280;3630;42.146;24.756;2023-01-30T02:56:43;99805.31;;;5.18;62.99
7178;BME280;3630;42.146;24.756;2023-01-30T02:59:12;99801.84;;;5.16;63.36
7178;BME280;3630;42.146;24.756;2023-01-30T03:02:00;99806.59;;;5.09;62.28
7178;BME280;3630;42.146;24.756;2023-01-30T03:04:47;99796.25;;;5.06;62.75
7178;BME280;3630;42.146;24.756;2023-01-30T03:07:24;99799.63;;;5.05;62.62
7178;BME280;3630;42.146;24.756;2023-01-30T03:09:59;99795.19;;;5.01;63.72
7178;BME280;3630;42.146;24.756;2023-01-30T03:12:36;99792.75;;;5.02;62.54
7178;BME280;3630;42.146;24.756;2023-01-30T03:15:09;99794.47;;;5.03;63.12
7178;BME280;3630;42.146;24.756;2023-01-30T03:17:39;99784.75;;;4.95;62.89
7178;BME280;3630;42.146;24.756;2023-01-30T03:20:10;99786.63;;;4.99;63.20
7178;BME280;3630;42.146;24.756;2023-01-30T03:22:38;99787.66;;;5.02;63.23
7178;BME280;3630;42.146;24.756;2023-01-30T03:25:07;99765.00;;;4.89;62.60
7178;BME280;3630;42.146;24.756;2023-01-30T03:27:34;99782.44;;;4.99;62.52
7178;BME280;3630;42.146;24.756;2023-01-30T03:30:03;99777.06;;;4.93;62.97
7178;BME280;3630;42.146;24.756;2023-01-30T03:32:30;99781.13;;;4.90;62.85
7178;BME280;3630;42.146;24.756;2023-01-30T03:35:05;99773.44;;;4.88;62.82
7178;BME280;3630;42.146;24.756;2023-01-30T03:37:33;99768.41;;;4.90;62.27
7178;BME280;3630;42.146;24.756;2023-01-30T03:40:00;99774.38;;;4.90;62.20
7178;BME280;3630;42.146;24.756;2023-01-30T03:42:27;99781.97;;;4.89;61.98
7178;BME280;3630;42.146;24.756;2023-01-30T03:44:54;99770.97;;;4.90;62.15
7178;BME280;3630;42.146;24.756;2023-01-30T03:47:20;99777.47;;;4.83;62.31
7178;BME280;3630;42.146;24.756;2023-01-30T03:49:47;99783.38;;;4.82;61.76
7178;BME280;3630;42.146;24.756;2023-01-30T03:52:14;99780.78;;;4.81;62.07
7178;BME280;3630;42.146;24.756;2023-01-30T03:54:42;99776.66;;;4.84;61.98
7178;BME280;3630;42.146;24.756;2023-01-30T03:57:09;99786.19;;;4.88;62.68
7178;BME280;3630;42.146;24.756;2023-01-30T03:59:35;99776.66;;;4.84;62.35
7178;BME280;3630;42.146;24.756;2023-01-30T04:02:02;99783.81;;;4.93;61.43
7178;BME280;3630;42.146;24.756;2023-01-30T04:04:29;99789.00;;;4.94;61.23
7178;BME280;3630;42.146;24.756;2023-01-30T04:06:56;99770.03;;;4.88;61.43
7178;BME280;3630;42.146;24.756;2023-01-30T04:09:23;99771.88;;;4.92;61.44
7178;BME280;3630;42.146;24.756;2023-01-30T04:11:51;99773.72;;;4.94;61.81
7178;BME280;3630;42.146;24.756;2023-01-30T04:14:18;99769.28;;;4.90;61.08
7178;BME280;3630;42.146;24.756;2023-01-30T04:16:45;99769.28;;;4.90;61.58
7178;BME280;3630;42.146;24.756;2023-01-30T04:19:11;99775.19;;;4.89;61.59
7178;BME280;3630;42.146;24.756;2023-01-30T04:21:38;99770.59;;;4.81;61.54
7178;BME280;3630;42.146;24.756;2023-01-30T04:24:05;99769.97;;;4.86;61.71
7178;BME280;3630;42.146;24.756;2023-01-30T04:26:32;99773.44;;;4.88;61.65
7178;BME280;3630;42.146;24.756;2023-01-30T04:29:00;99762.44;;;4.89;61.06
7178;BME280;3630;42.146;24.756;2023-01-30T04:31:27;99776.13;;;4.91;60.80
7178;BME280;3630;42.146;24.756;2023-01-30T04:33:54;99767.75;;;4.94;60.81
7178;BME280;3630;42.146;24.756;2023-01-30T04:36:21;99769.28;;;4.90;60.75
7178;BME280;3630;42.146;24.756;2023-01-30T04:38:47;99769.25;;;4.89;61.22
7178;BME280;3630;42.146;24.756;2023-01-30T04:41:14;99775.06;;;4.86;60.42
7178;BME280;3630;42.146;24.756;2023-01-30T04:43:41;99766.03;;;4.73;61.29
7178;BME280;3630;42.146;24.756;2023-01-30T04:46:09;99772.78;;;4.73;61.48
7178;BME280;3630;42.146;24.756;2023-01-30T04:48:36;99775.53;;;4.78;61.09
7178;BME280;3630;42.146;24.756;2023-01-30T04:51:04;99774.41;;;4.71;61.36
7178;BME280;3630;42.146;24.756;2023-01-30T04:53:31;99768.66;;;4.56;61.46
7178;BME280;3630;42.146;24.756;2023-01-30T04:55:57;99778.09;;;4.58;61.79
7178;BME280;3630;42.146;24.756;2023-01-30T04:58:24;99773.59;;;4.53;62.32
7178;BME280;3630;42.146;24.756;2023-01-30T05:00:51;99774.59;;;4.56;62.24
7178;BME280;3630;42.146;24.756;2023-01-30T05:03:19;99772.25;;;4.61;61.86
7178;BME280;3630;42.146;24.756;2023-01-30T05:05:46;99750.63;;;4.51;62.57
7178;BME280;3630;42.146;24.756;2023-01-30T05:08:14;99760.28;;;4.58;61.28
7178;BME280;3630;42.146;24.756;2023-01-30T05:10:41;99770.59;;;4.61;61.45
7178;BME280;3630;42.146;24.756;2023-01-30T05:13:08;99770.22;;;4.54;62.01
7178;BME280;3630;42.146;24.756;2023-01-30T05:15:35;99769.13;;;4.47;61.70
7178;BME280;3630;42.146;24.756;2023-01-30T05:18:02;99773.19;;;4.63;61.46
7178;BME280;3630;42.146;24.756;2023-01-30T05:20:30;99775.59;;;4.60;60.62
7178;BME280;3630;42.146;24.756;2023-01-30T05:22:56;99776.47;;;4.60;60.60
7178;BME280;3630;42.146;24.756;2023-01-30T05:25:23;99777.50;;;4.64;60.90
7178;BME280;3630;42.146;24.756;2023-01-30T05:27:51;99772.25;;;4.61;60.70
7178;BME280;3630;42.146;24.756;2023-01-30T05:30:18;99773.19;;;4.63;60.93
7178;BME280;3630;42.146;24.756;2023-01-30T05:32:45;99776.75;;;4.66;60.27
7178;BME280;3630;42.146;24.756;2023-01-30T05:35:12;99780.03;;;4.64;60.35
7178;BME280;3630;42.146;24.756;2023-01-30T05:37:40;99783.31;;;4.61;60.23
7178;BME280;3630;42.146;24.756;2023-01-30T05:40:08;99773.75;;;4.56;60.37
7178;BME280;3630;42.146;24.756;2023-01-30T05:42:35;99771.06;;;4.53;61.02
7178;BME280;3630;42.146;24.756;2023-01-30T05:45:01;99774.44;;;4.53;60.84
7178;BME280;3630;42.146;24.756;2023-01-30T05:47:28;99774.53;;;4.55;60.48
7178;BME280;3630;42.146;24.756;2023-01-30T05:49:55;99771.72;;;4.49;61.28
7178;BME280;3630;42.146;24.756;2023-01-30T05:52:22;99775.31;;;4.54;61.63
7178;BME280;3630;42.146;24.756;2023-01-30T05:54:50;99776.38;;;4.59;60.50
7178;BME280;3630;42.146;24.756;2023-01-30T05:57:17;99770.19;;;4.52;60.51
7178;BME280;3630;42.146;24.756;2023-01-30T05:59:43;99775.59;;;4.60;60.18
7178;BME280;3630;42.146;24.756;2023-01-30T06:02:10;99775.53;;;4.58;60.90
7178;BME280;3630;42.146;24.756;2023-01-30T06:04:37;99765.16;;;4.54;60.73
7178;BME280;3630;42.146;24.756;2023-01-30T06:07:04;99761.53;;;4.49;60.20
7178;BME280;3630;42.146;24.756;2023-01-30T06:09:31;99769.84;;;4.45;59.79
7178;BME280;3630;42.146;24.756;2023-01-30T06:12:01;99780.88;;;4.45;60.94
7178;BME280;3630;42.146;24.756;2023-01-30T06:14:28;99775.63;;;4.42;60.87
7178;BME280;3630;42.146;24.756;2023-01-30T06:16:55;99770.50;;;4.41;60.28
7178;BME280;3630;42.146;24.756;2023-01-30T06:19:21;99786.22;;;4.51;61.09
7178;BME280;3630;42.146;24.756;2023-01-30T06:21:48;99787.06;;;4.50;61.19
7178;BME280;3630;42.146;24.756;2023-01-30T06:24:15;99786.03;;;4.47;61.51
7178;BME280;3630;42.146;24.756;2023-01-30T06:26:42;99786.09;;;4.48;61.60
7178;BME280;3630;42.146;24.756;2023-01-30T06:29:10;99789.78;;;4.55;60.83
7178;BME280;3630;42.146;24.756;2023-01-30T06:31:37;99792.47;;;4.58;61.13
7178;BME280;3630;42.146;24.756;2023-01-30T06:34:03;99789.94;;;4.58;60.83
7178;BME280;3630;42.146;24.756;2023-01-30T06:36:30;99792.66;;;4.62;61.11
7178;BME280;3630;42.146;24.756;2023-01-30T06:38:57;99797.44;;;4.55;60.91
7178;BME280;3630;42.146;24.756;2023-01-30T06:41:24;99791.56;;;4.56;60.55
7178;BME280;3630;42.146;24.756;2023-01-30T06:43:51;99677.28;;;3.85;60.22
7178;BME280;3630;42.146;24.756;2023-01-30T06:46:19;99792.66;;;4.62;60.71
7178;BME280;3630;42.146;24.756;2023-01-30T06:48:46;99783.38;;;4.63;60.48
7178;BME280;3630;42.146;24.756;2023-01-30T06:51:13;99799.84;;;4.71;60.82
7178;BME280;3630;42.146;24.756;2023-01-30T06:53:40;99795.41;;;4.67;60.53
7178;BME280;3630;42.146;24.756;2023-01-30T06:56:16;99794.44;;;4.63;60.17
7178;BME280;3630;42.146;24.756;2023-01-30T06:58:43;99781.09;;;4.50;60.45
7178;BME280;3630;42.146;24.756;2023-01-30T07:01:10;99796.09;;;4.63;59.96
7178;BME280;3630;42.146;24.756;2023-01-30T07:03:38;99799.78;;;4.69;60.93
7178;BME280;3630;42.146;24.756;2023-01-30T07:06:05;99793.00;;;4.70;60.51
7178;BME280;3630;42.146;24.756;2023-01-30T07:08:31;99677.63;;;3.93;60.15
7178;BME280;3630;42.146;24.756;2023-01-30T07:10:58;99802.19;;;4.66;60.61
7178;BME280;3630;42.146;24.756;2023-01-30T07:13:25;99805.66;;;4.68;60.44
7178;BME280;3630;42.146;24.756;2023-01-30T07:15:52;99803.19;;;4.70;60.79
7178;BME280;3630;42.146;24.756;2023-01-30T07:18:19;99804.13;;;4.72;60.86
7178;BME280;3630;42.146;24.756;2023-01-30T07:20:48;99798.31;;;4.74;60.57
7178;BME280;3630;42.146;24.756;2023-01-30T07:23:15;99798.69;;;4.84;60.28
7178;BME280;3630;42.146;24.756;2023-01-30T07:25:42;99807.34;;;4.87;59.84
7178;BME280;3630;42.146;24.756;2023-01-30T07:28:10;99796.41;;;4.90;59.43
7178;BME280;3630;42.146;24.756;2023-01-30T07:30:37;99804.88;;;4.89;59.78
7178;BME280;3630;42.146;24.756;2023-01-30T07:33:05;99795.44;;;4.86;60.54
7178;BME280;3630;42.146;24.756;2023-01-30T07:35:34;99799.69;;;4.87;60.10
7178;BME280;3630;42.146;24.756;2023-01-30T07:38:03;99759.31;;;4.75;59.88
7178;BME280;3630;42.146;24.756;2023-01-30T07:40:30;99784.09;;;4.80;59.89
7178;BME280;3630;42.146;24.756;2023-01-30T07:42:57;99796.41;;;4.90;60.10
7178;BME280;3630;42.146;24.756;2023-01-30T07:45:24;99794.00;;;4.93;59.28
7178;BME280;3630;42.146;24.756;2023-01-30T07:47:53;99800.16;;;4.98;59.69
7178;BME280;3630;42.146;24.756;2023-01-30T07:50:20;99792.75;;;5.02;60.07
7178;BME280;3630;42.146;24.756;2023-01-30T07:52:46;99795.53;;;5.08;59.35
7178;BME280;3630;42.146;24.756;2023-01-30T07:55:15;99794.06;;;5.13;60.03
7178;BME280;3630;42.146;24.756;2023-01-30T07:57:41;99782.13;;;5.12;59.56
7178;BME280;3630;42.146;24.756;2023-01-30T08:00:09;99780.50;;;5.14;58.98
7178;BME280;3630;42.146;24.756;2023-01-30T08:02:37;99779.84;;;5.18;58.85
7178;BME280;3630;42.146;24.756;2023-01-30T08:05:04;99780.78;;;5.20;59.00
7178;BME280;3630;42.146;24.756;2023-01-30T08:07:31;99785.19;;;5.24;59.11
7178;BME280;3630;42.146;24.756;2023-01-30T08:09:58;99782.44;;;5.20;58.46
7178;BME280;3630;42.146;24.756;2023-01-30T08:12:26;99790.41;;;5.27;58.36
7178;BME280;3630;42.146;24.756;2023-01-30T08:14:53;99787.94;;;5.29;59.31
7178;BME280;3630;42.146;24.756;2023-01-30T08:17:21;99787.69;;;5.44;58.64
7178;BME280;3630;42.146;24.756;2023-01-30T08:19:48;99786.56;;;5.37;58.42
7178;BME280;3630;42.146;24.756;2023-01-30T08:22:15;99778.25;;;5.41;58.26
7178;BME280;3630;42.146;24.756;2023-01-30T08:24:42;99780.91;;;5.44;57.64
7178;BME280;3630;42.146;24.756;2023-01-30T08:27:09;99785.50;;;5.53;58.35
7178;BME280;3630;42.146;24.756;2023-01-30T08:29:37;99781.03;;;5.47;58.27
7178;BME280;3630;42.146;24.756;2023-01-30T08:32:04;99782.47;;;5.41;56.28
7178;BME280;3630;42.146;24.756;2023-01-30T08:34:31;99783.00;;;5.33;57.70
7178;BME280;3630;42.146;24.756;2023-01-30T08:36:57;99772.91;;;5.35;57.71
7178;BME280;3630;42.146;24.756;2023-01-30T08:39:24;99773.22;;;5.43;57.73
7178;BME280;3630;42.146;24.756;2023-01-30T08:41:51;99760.97;;;5.34;57.88
7178;BME280;3630;42.146;24.756;2023-01-30T08:44:18;99760.78;;;5.29;57.84
7178;BME280;3630;42.146;24.756;2023-01-30T08:46:46;99766.34;;;5.42;57.12
7178;BME280;3630;42.146;24.756;2023-01-30T08:49:13;99767.06;;;5.38;57.53
7178;BME280;3630;42.146;24.756;2023-01-30T08:51:39;99777.56;;;5.45;57.54
7178;BME280;3630;42.146;24.756;2023-01-30T08:54:06;99769.16;;;5.48;57.01
7178;BME280;3630;42.146;24.756;2023-01-30T08:56:33;99776.94;;;5.51;57.37
7178;BME280;3630;42.146;24.756;2023-01-30T08:59:00;99761.66;;;5.51;56.72
7178;BME280;3630;42.146;24.756;2023-01-30T09:01:27;99762.78;;;5.57;57.29
7178;BME280;3630;42.146;24.756;2023-01-30T09:03:56;99766.75;;;5.51;56.08
7178;BME280;3630;42.146;24.756;2023-01-30T09:06:22;99756.56;;;5.51;56.52
7178;BME280;3630;42.146;24.756;2023-01-30T09:08:49;99760.47;;;5.43;55.75
7178;BME280;3630;42.146;24.756;2023-01-30T09:11:16;99756.50;;;5.49;56.83
7178;BME280;3630;42.146;24.756;2023-01-30T09:13:43;99664.72;;;5.06;55.73
7178;BME280;3630;42.146;24.756;2023-01-30T09:16:10;99738.88;;;5.55;56.04
7178;BME280;3630;42.146;24.756;2023-01-30T09:18:38;99751.13;;;5.64;56.18
7178;BME280;3630;42.146;24.756;2023-01-30T09:21:08;99751.25;;;5.67;56.00
7178;BME280;3630;42.146;24.756;2023-01-30T09:23:35;99716.66;;;5.51;55.98
7178;BME280;3630;42.146;24.756;2023-01-30T09:26:03;99733.56;;;5.71;56.37
7178;BME280;3630;42.146;24.756;2023-01-30T09:28:29;99745.41;;;5.69;56.19
7178;BME280;3630;42.146;24.756;2023-01-30T09:30:56;99735.03;;;5.65;55.83
7178;BME280;3630;42.146;24.756;2023-01-30T09:33:23;99728.81;;;5.58;55.18
7178;BME280;3630;42.146;24.756;2023-01-30T09:35:50;99716.53;;;5.48;55.91
7178;BME280;3630;42.146;24.756;2023-01-30T09:38:19;99720.00;;;5.50;56.24
7178;BME280;3630;42.146;24.756;2023-01-30T09:40:54;99705.97;;;5.60;56.22
7178;BME280;3630;42.146;24.756;2023-01-30T09:43:33;99710.59;;;5.70;56.51
7178;BME280;3630;42.146;24.756;2023-01-30T09:46:11;99702.19;;;5.72;56.41
7178;BME280;3630;42.146;24.756;2023-01-30T09:48:51;99697.16;;;5.74;56.81
7178;BME280;3630;42.146;24.756;2023-01-30T09:51:38;99692.91;;;5.74;56.84
7178;BME280;3630;42.146;24.756;2023-01-30T09:54:15;99691.59;;;5.84;56.47
7178;BME280;3630;42.146;24.756;2023-01-30T09:56:45;99699.88;;;5.78;56.68
7178;BME280;3630;42.146;24.756;2023-01-30T09:59:20;99689.53;;;5.74;56.95
7178;BME280;3630;42.146;24.756;2023-01-30T10:01:54;99685.50;;;5.80;56.47
7178;BME280;3630;42.146;24.756;2023-01-30T10:04:30;99671.84;;;5.78;56.71
7178;BME280;3630;42.146;24.756;2023-01-30T10:07:03;99670.44;;;5.85;56.43
7178;BME280;3630;42.146;24.756;2023-01-30T10:09:41;99661.28;;;5.90;55.67
7178;BME280;3630;42.146;24.756;2023-01-30T10:12:30;99650.09;;;5.86;55.47
7178;BME280;3630;42.146;24.756;2023-01-30T10:15:15;99652.88;;;5.92;55.63
7178;BME280;3630;42.146;24.756;2023-01-30T10:17:57;99652.22;;;5.98;55.17
7178;BME280;3630;42.146;24.756;2023-01-30T10:20:47;99641.50;;;6.07;55.13
7178;BME280;3630;42.146;24.756;2023-01-30T10:23:29;99636.88;;;6.20;54.92
7178;BME280;3630;42.146;24.756;2023-01-30T10:26:03;99629.53;;;6.29;54.67
7178;BME280;3630;42.146;24.756;2023-01-30T10:28:33;99630.16;;;6.22;53.67
7178;BME280;3630;42.146;24.756;2023-01-30T10:31:07;99622.50;;;6.22;53.94
7178;BME280;3630;42.146;24.756;2023-01-30T10:33:39;99615.44;;;6.15;54.21
7178;BME280;3630;42.146;24.756;2023-01-30T10:36:11;99599.63;;;6.25;54.37
7178;BME280;3630;42.146;24.756;2023-01-30T10:38:45;99600.25;;;6.43;53.75
7178;BME280;3630;42.146;24.756;2023-01-30T10:41:21;99596.19;;;6.48;52.94
7178;BME280;3630;42.146;24.756;2023-01-30T10:43:57;99595.03;;;6.40;52.92
7178;BME280;3630;42.146;24.756;2023-01-30T10:46:42;99590.66;;;6.36;53.60
7178;BME280;3630;42.146;24.756;2023-01-30T10:49:18;99582.91;;;6.33;54.26
7178;BME280;3630;42.146;24.756;2023-01-30T10:51:54;99535.22;;;6.07;53.57
7178;BME280;3630;42.146;24.756;2023-01-30T10:54:30;99570.78;;;6.03;54.15
7178;BME280;3630;42.146;24.756;2023-01-30T10:57:09;99567.03;;;6.17;54.09
7178;BME280;3630;42.146;24.756;2023-01-30T10:59:45;99549.59;;;6.05;53.83
7178;BME280;3630;42.146;24.756;2023-01-30T11:02:23;99555.72;;;6.10;54.82
7178;BME280;3630;42.146;24.756;2023-01-30T11:04:56;99550.84;;;6.16;54.12
7178;BME280;3630;42.146;24.756;2023-01-30T11:07:28;99492.44;;;5.99;54.16
7178;BME280;3630;42.146;24.756;2023-01-30T11:09:56;99529.31;;;6.33;53.49
7178;BME280;3630;42.146;24.756;2023-01-30T11:12:25;99526.78;;;6.33;53.68
7178;BME280;3630;42.146;24.756;2023-01-30T11:14:54;99522.34;;;6.28;53.29
7178;BME280;3630;42.146;24.756;2023-01-30T11:17:28;99519.25;;;6.38;53.04
7178;BME280;3630;42.146;24.756;2023-01-30T11:20:10;99510.59;;;6.58;53.21
7178;BME280;3630;42.146;24.756;2023-01-30T11:22:44;99513.38;;;6.66;52.74
7178;BME280;3630;42.146;24.756;2023-01-30T11:25:14;99499.31;;;6.78;51.90
7178;BME280;3630;42.146;24.756;2023-01-30T11:27:44;99499.38;;;6.81;51.42
7178;BME280;3630;42.146;24.756;2023-01-30T11:30:18;99490.50;;;6.69;52.21
7178;BME280;3630;42.146;24.756;2023-01-30T11:32:49;99488.13;;;6.75;51.99
7178;BME280;3630;42.146;24.756;2023-01-30T11:35:26;99486.25;;;6.69;52.27
7178;BME280;3630;42.146;24.756;2023-01-30T11:37:53;99480.34;;;6.70;52.09
7178;BME280;3630;42.146;24.756;2023-01-30T11:40:26;99470.88;;;6.68;52.26
7178;BME280;3630;42.146;24.756;2023-01-30T11:43:02;99465.28;;;6.79;52.38
7178;BME280;3630;42.146;24.756;2023-01-30T11:45:33;99460.16;;;6.78;51.62
7178;BME280;3630;42.146;24.756;2023-01-30T11:48:05;99456.66;;;6.76;51.39
7178;BME280;3630;42.146;24.756;2023-01-30T11:50:40;99456.09;;;6.58;51.83
7178;BME280;3630;42.146;24.756;2023-01-30T11:56:34;99451.97;;;6.61;52.70
7178;BME280;3630;42.146;24.756;2023-01-30T11:59:05;99446.03;;;6.62;51.96
7178;BME280;3630;42.146;24.756;2023-01-30T12:01:34;99440.09;;;6.62;49.38
7178;BME280;3630;42.146;24.756;2023-01-30T12:04:07;99445.34;;;6.68;48.20
7178;BME280;3630;42.146;24.756;2023-01-30T12:06:36;99416.69;;;6.48;46.37
7178;BME280;3630;42.146;24.756;2023-01-30T12:09:05;99424.19;;;6.70;46.14
7178;BME280;3630;42.146;24.756;2023-01-30T12:11:42;99396.75;;;6.36;45.19
7178;BME280;3630;42.146;24.756;2023-01-30T12:14:24;99417.69;;;6.53;44.86
7178;BME280;3630;42.146;24.756;2023-01-30T12:17:01;99397.53;;;6.62;45.90
7178;BME280;3630;42.146;24.756;2023-01-30T12:19:38;99422.78;;;6.81;45.21
7178;BME280;3630;42.146;24.756;2023-01-30T12:22:17;99418.88;;;6.64;44.95
7178;BME280;3630;42.146;24.756;2023-01-30T12:24:56;99383.34;;;6.43;45.02
7178;BME280;3630;42.146;24.756;2023-01-30T12:27:28;99402.50;;;6.58;45.54
7178;BME280;3630;42.146;24.756;2023-01-30T12:30:03;99398.06;;;6.50;45.17
7178;BME280;3630;42.146;24.756;2023-01-30T12:32:33;99407.06;;;6.39;45.02
7178;BME280;3630;42.146;24.756;2023-01-30T12:35:01;99364.03;;;6.23;45.66
7178;BME280;3630;42.146;24.756;2023-01-30T12:37:38;99385.59;;;6.61;45.56
7178;BME280;3630;42.146;24.756;2023-01-30T12:40:19;99392.84;;;6.76;46.02
7178;BME280;3630;42.146;24.756;2023-01-30T12:46:07;99385.06;;;6.71;45.09
7178;BME280;3630;42.146;24.756;2023-01-30T12:51:52;99388.47;;;6.43;45.38
7178;BME280;3630;42.146;24.756;2023-01-30T12:54:37;99371.13;;;6.33;46.07
7178;BME280;3630;42.146;24.756;2023-01-30T12:57:19;99361.38;;;6.48;45.89
7178;BME280;3630;42.146;24.756;2023-01-30T13:00:00;99363.94;;;6.48;45.55
7178;BME280;3630;42.146;24.756;2023-01-30T13:02:47;99359.09;;;6.56;45.36
7178;BME280;3630;42.146;24.756;2023-01-30T13:05:25;99351.03;;;6.42;44.90
7178;BME280;3630;42.146;24.756;2023-01-30T13:08:24;99351.16;;;6.47;45.52
7178;BME280;3630;42.146;24.756;2023-01-30T13:11:04;99354.75;;;6.53;45.12
7178;BME280;3630;42.146;24.756;2023-01-30T13:13:39;99345.56;;;6.32;45.59
7178;BME280;3630;42.146;24.756;2023-01-30T13:16:13;99342.28;;;6.34;46.39
7178;BME280;3630;42.146;24.756;2023-01-30T13:18:49;99342.72;;;6.49;46.57
7178;BME280;3630;42.146;24.756;2023-01-30T13:21:22;99343.53;;;6.48;47.05
7178;BME280;3630;42.146;24.756;2023-01-30T13:24:03;99340.16;;;6.49;47.55
7178;BME280;3630;42.146;24.756;2023-01-30T13:26:35;99339.97;;;6.43;46.46
7178;BME280;3630;42.146;24.756;2023-01-30T13:29:05;99336.28;;;6.34;46.62
7178;BME280;3630;42.146;24.756;2023-01-30T13:31:39;99333.75;;;6.34;46.54
7178;BME280;3630;42.146;24.756;2023-01-30T13:34:14;99329.44;;;6.33;46.58
7178;BME280;3630;42.146;24.756;2023-01-30T13:36:48;99335.56;;;6.38;46.26
7178;BME280;3630;42.146;24.756;2023-01-30T13:39:23;99325.31;;;6.36;45.74
7178;BME280;3630;42.146;24.756;2023-01-30T13:41:55;99326.03;;;6.32;45.68
7178;BME280;3630;42.146;24.756;2023-01-30T13:44:26;99307.94;;;6.25;45.83
7178;BME280;3630;42.146;24.756;2023-01-30T13:46:56;99322.56;;;6.30;45.81
7178;BME280;3630;42.146;24.756;2023-01-30T13:49:29;99326.13;;;6.35;45.41
7178;BME280;3630;42.146;24.756;2023-01-30T13:52:06;99332.91;;;6.35;45.39
7178;BME280;3630;42.146;24.756;2023-01-30T13:54:47;99320.72;;;6.26;45.85
7178;BME280;3630;42.146;24.756;2023-01-30T13:57:30;99322.38;;;6.24;46.08
7178;BME280;3630;42.146;24.756;2023-01-30T14:00:30;99329.63;;;6.11;46.39